createdAt,value
2023-07-12T00:02:15.351Z,1.48
2023-07-12T00:04:51.220Z,1.92
2023-07-12T00:07:22.625Z,2.00
2023-07-12T00:09:51.974Z,2.10
2023-07-12T00:12:21.253Z,2.38
2023-07-12T00:14:50.615Z,1.80
2023-07-12T00:19:57.097Z,1.98
2023-07-12T00:22:28.309Z,2.05
2023-07-12T00:24:57.721Z,1.90
2023-07-12T00:27:26.909Z,1.92
2023-07-12T00:29:56.261Z,2.00
2023-07-12T00:32:30.647Z,2.05
2023-07-12T00:35:00.352Z,2.30
2023-07-12T00:37:35.706Z,2.00
2023-07-12T00:40:06.528Z,2.05
2023-07-12T00:42:41.616Z,1.90
2023-07-12T00:45:14.152Z,1.80
2023-07-12T00:47:45.140Z,1.90
2023-07-12T00:50:21.326Z,1.67
2023-07-12T00:52:59.680Z,1.95
2023-07-12T00:55:59.146Z,1.73
2023-07-12T00:58:32.666Z,1.80
2023-07-12T01:01:05.676Z,1.90
2023-07-12T01:03:39.426Z,2.00
2023-07-12T01:06:12.285Z,1.98
2023-07-12T01:08:54.757Z,1.92
2023-07-12T01:11:28.311Z,2.22
2023-07-12T01:14:00.720Z,1.83
2023-07-12T01:16:31.100Z,1.80
2023-07-12T01:21:49.098Z,2.05
2023-07-12T01:24:19.706Z,1.88
2023-07-12T01:26:50.540Z,1.67
2023-07-12T01:29:20.379Z,2.00
2023-07-12T01:31:50.114Z,1.90
2023-07-12T01:34:20.527Z,1.75
2023-07-12T01:36:52.159Z,1.85
2023-07-12T01:39:21.693Z,2.08
2023-07-12T01:41:50.836Z,2.20
2023-07-12T01:44:37.987Z,2.00
2023-07-12T01:47:07.480Z,1.80
2023-07-12T01:49:39.148Z,1.60
2023-07-12T01:52:15.914Z,1.52
2023-07-12T01:54:45.227Z,1.90
2023-07-12T01:57:14.630Z,2.08
2023-07-12T01:59:49.150Z,2.17
2023-07-12T02:02:18.517Z,2.05
2023-07-12T02:04:53.901Z,1.90
2023-07-12T02:07:25.336Z,2.10
2023-07-12T02:10:20.969Z,1.63
2023-07-12T02:12:51.450Z,1.90
2023-07-12T02:15:25.939Z,1.98
2023-07-12T02:17:56.226Z,1.88
2023-07-12T02:20:31.026Z,2.28
2023-07-12T02:23:02.445Z,2.03
2023-07-12T02:25:38.427Z,2.25
2023-07-12T02:28:13.130Z,2.08
2023-07-12T02:30:46.267Z,1.70
2023-07-12T02:33:15.558Z,2.10
2023-07-12T02:35:45.284Z,2.20
2023-07-12T02:38:16.629Z,2.25
2023-07-12T02:40:46.046Z,1.95
2023-07-12T02:43:15.408Z,2.20
2023-07-12T02:48:25.154Z,1.58
2023-07-12T02:50:59.354Z,2.08
2023-07-12T02:53:31.667Z,1.70
2023-07-12T02:56:00.953Z,1.40
2023-07-12T02:58:30.211Z,1.52
2023-07-12T03:01:05.705Z,1.67
2023-07-12T03:03:35.327Z,1.63
2023-07-12T03:06:06.192Z,1.90
2023-07-12T03:08:37.934Z,1.70
2023-07-12T03:13:42.614Z,1.13
2023-07-12T03:16:22.070Z,1.25
2023-07-12T03:18:52.039Z,1.83
2023-07-12T03:21:21.476Z,1.38
2023-07-12T03:23:52.914Z,1.55
2023-07-12T03:26:22.264Z,1.58
2023-07-12T03:28:59.369Z,1.50
2023-07-12T03:31:30.306Z,1.40
2023-07-12T03:34:05.433Z,1.60
2023-07-12T03:36:34.909Z,1.48
2023-07-12T03:39:11.466Z,1.63
2023-07-12T03:41:40.761Z,1.70
2023-07-12T03:44:10.159Z,1.70
2023-07-12T03:46:39.500Z,1.70
2023-07-12T03:49:08.838Z,1.58
2023-07-12T03:51:38.345Z,1.50
2023-07-12T03:54:07.679Z,1.27
2023-07-12T03:56:38.851Z,1.23
2023-07-12T03:59:09.218Z,1.63
2023-07-12T04:01:39.963Z,1.63
2023-07-12T04:04:09.365Z,1.47
2023-07-12T04:06:41.002Z,1.30
2023-07-12T04:09:10.558Z,1.65
2023-07-12T04:11:42.288Z,1.42
2023-07-12T04:16:48.159Z,1.13
2023-07-12T04:19:17.538Z,1.40
2023-07-12T04:21:46.769Z,1.70
2023-07-12T04:24:16.076Z,1.70
2023-07-12T04:26:47.379Z,1.50
2023-07-12T04:29:16.685Z,1.33
2023-07-12T04:31:45.930Z,1.40
2023-07-12T04:34:22.847Z,1.40
2023-07-12T04:37:09.766Z,1.35
2023-07-12T04:39:39.153Z,1.27
2023-07-12T04:42:15.382Z,1.50
2023-07-12T04:44:47.449Z,1.33
2023-07-12T04:47:18.439Z,1.40
2023-07-12T04:49:47.958Z,1.30
2023-07-12T04:52:17.598Z,1.60
2023-07-12T04:54:47.380Z,1.30
2023-07-12T04:57:18.627Z,1.60
2023-07-12T04:59:48.136Z,1.35
2023-07-12T05:02:17.367Z,1.20
2023-07-12T05:04:52.822Z,1.33
2023-07-12T05:07:22.095Z,1.50
2023-07-12T05:09:51.500Z,1.17
2023-07-12T05:12:23.029Z,1.70
2023-07-12T05:14:52.399Z,1.60
2023-07-12T05:17:21.977Z,1.85
2023-07-12T05:19:51.605Z,1.65
2023-07-12T05:22:20.899Z,1.85
2023-07-12T05:24:50.381Z,1.55
2023-07-12T05:27:26.647Z,1.50
2023-07-12T05:29:56.542Z,1.40
2023-07-12T05:32:25.887Z,2.03
2023-07-12T05:34:55.365Z,1.75
2023-07-12T05:37:27.677Z,1.75
2023-07-12T05:39:59.821Z,2.00
2023-07-12T05:42:31.362Z,1.38
2023-07-12T05:45:06.760Z,1.85
2023-07-12T05:47:36.207Z,1.90
2023-07-12T05:50:06.198Z,1.70
2023-07-12T05:52:35.661Z,2.00
2023-07-12T05:55:05.091Z,1.80
2023-07-12T05:57:41.990Z,1.90
2023-07-12T06:00:15.069Z,2.30
2023-07-12T06:02:50.247Z,2.40
2023-07-12T06:05:20.046Z,3.88
2023-07-12T06:07:49.620Z,3.67
2023-07-12T06:10:19.217Z,3.97
2023-07-12T06:12:50.512Z,4.20
2023-07-12T06:15:20.272Z,3.88
2023-07-12T06:17:54.652Z,3.30
2023-07-12T06:20:24.155Z,3.92
2023-07-12T06:22:53.335Z,3.58
2023-07-12T06:25:22.949Z,3.40
2023-07-12T06:27:54.693Z,3.00
2023-07-12T06:30:24.472Z,3.30
2023-07-12T06:32:54.154Z,3.13
2023-07-12T06:35:23.544Z,2.80
2023-07-12T06:37:52.665Z,2.85
2023-07-12T06:40:27.324Z,2.92
2023-07-12T06:43:03.956Z,3.25
2023-07-12T06:45:38.626Z,2.10
2023-07-12T06:48:13.150Z,2.30
2023-07-12T06:50:42.795Z,2.63
2023-07-12T06:53:12.176Z,1.83
2023-07-12T06:58:33.129Z,2.28
2023-07-12T07:01:07.866Z,2.00
2023-07-12T07:03:38.613Z,2.30
2023-07-12T07:06:08.081Z,2.10
2023-07-12T07:08:37.744Z,1.90
2023-07-12T07:11:07.369Z,2.33
2023-07-12T07:13:38.968Z,2.00
2023-07-12T07:16:13.745Z,2.38
2023-07-12T07:18:50.128Z,2.17
2023-07-12T07:21:24.549Z,2.10
2023-07-12T07:23:54.489Z,2.03
2023-07-12T07:26:23.927Z,2.25
2023-07-12T07:29:00.378Z,2.13
2023-07-12T07:31:34.809Z,2.50
2023-07-12T07:34:04.488Z,2.35
2023-07-12T07:36:33.786Z,2.38
2023-07-12T07:39:03.761Z,2.53
2023-07-12T07:41:33.001Z,2.45
2023-07-12T07:44:04.172Z,2.67
2023-07-12T07:46:33.893Z,2.45
2023-07-12T07:49:03.395Z,2.20
2023-07-12T07:51:38.897Z,2.40
2023-07-12T07:54:08.307Z,2.13
2023-07-12T07:56:37.783Z,2.17
2023-07-12T07:59:15.430Z,2.13
2023-07-12T08:01:46.173Z,1.35
2023-07-12T08:04:18.098Z,2.03
2023-07-12T08:06:47.822Z,1.50
2023-07-12T08:09:17.225Z,1.80
2023-07-12T08:11:46.597Z,2.28
2023-07-12T08:14:24.117Z,1.35
2023-07-12T08:16:54.070Z,1.92
2023-07-12T08:19:27.980Z,1.45
2023-07-12T08:21:57.803Z,2.30
2023-07-12T08:24:27.272Z,2.08
2023-07-12T08:27:07.109Z,2.30
2023-07-12T08:29:40.527Z,1.60
2023-07-12T08:32:15.371Z,2.13
2023-07-12T08:34:49.777Z,1.90
2023-07-12T08:37:19.251Z,2.15
2023-07-12T08:39:48.647Z,2.00
2023-07-12T08:42:22.647Z,1.83
2023-07-12T08:44:55.089Z,2.15
2023-07-12T08:50:16.836Z,2.15
2023-07-12T08:52:48.298Z,2.20
2023-07-12T08:55:26.043Z,2.00
2023-07-12T08:58:00.254Z,2.10
2023-07-12T09:00:35.047Z,2.00
2023-07-12T09:03:04.380Z,2.17
2023-07-12T09:05:33.990Z,2.15
2023-07-12T09:08:15.201Z,2.30
2023-07-12T09:10:49.834Z,2.28
2023-07-12T09:13:35.343Z,2.13
2023-07-12T09:16:22.023Z,2.30
2023-07-12T09:19:00.449Z,2.30
2023-07-12T09:21:32.014Z,1.98
2023-07-12T09:24:05.774Z,2.30
2023-07-12T09:26:46.412Z,2.50
2023-07-12T09:29:23.563Z,2.50
2023-07-12T09:32:02.157Z,2.83
2023-07-12T09:34:44.094Z,2.30
2023-07-12T09:42:30.077Z,2.00
2023-07-12T09:47:54.843Z,2.00
2023-07-12T09:50:34.669Z,2.00
2023-07-12T09:53:09.160Z,2.30
2023-07-12T09:58:38.708Z,2.05
2023-07-12T10:01:19.693Z,1.95
2023-07-12T10:03:58.233Z,2.00
2023-07-12T10:06:38.604Z,2.35
2023-07-12T10:09:14.542Z,2.30
2023-07-12T10:11:49.569Z,2.42
2023-07-12T10:14:21.941Z,2.20
2023-07-12T10:16:57.378Z,2.20
2023-07-12T10:19:33.195Z,2.30
2023-07-12T10:22:06.181Z,2.63
2023-07-12T10:24:39.838Z,2.35
2023-07-12T10:27:19.982Z,2.42
2023-07-12T10:29:55.440Z,2.60
2023-07-12T10:32:28.974Z,2.50
2023-07-12T10:35:12.525Z,2.83
2023-07-12T10:37:49.869Z,2.55
2023-07-12T10:40:22.890Z,2.75
2023-07-12T10:42:58.599Z,2.40
2023-07-12T10:45:30.157Z,2.60
2023-07-12T10:50:38.772Z,2.13
2023-07-12T10:56:12.972Z,2.30
2023-07-12T10:58:53.214Z,2.08
2023-07-12T11:01:49.034Z,1.83
2023-07-12T11:04:32.848Z,2.20
2023-07-12T11:07:07.730Z,2.00
2023-07-12T11:10:07.353Z,1.90
2023-07-12T11:12:40.622Z,1.80
2023-07-12T11:15:25.614Z,1.80
2023-07-12T11:18:04.013Z,1.80
2023-07-12T11:20:37.276Z,2.15
2023-07-12T11:23:42.292Z,2.30
2023-07-12T11:26:27.623Z,2.13
2023-07-12T11:29:19.065Z,1.90
2023-07-12T11:31:52.785Z,2.05
2023-07-12T11:34:25.539Z,2.30
2023-07-12T11:37:02.641Z,2.20
2023-07-12T11:39:32.994Z,1.80
2023-07-12T11:42:28.666Z,1.90
2023-07-12T11:45:06.469Z,2.35
2023-07-12T11:47:37.738Z,2.05
2023-07-12T11:50:10.932Z,1.83
2023-07-12T11:52:45.526Z,1.90
2023-07-12T11:55:22.590Z,1.80
2023-07-12T11:57:54.448Z,1.73
2023-07-12T12:00:30.270Z,1.92
2023-07-12T12:03:01.799Z,1.38
2023-07-12T12:10:38.338Z,1.20
2023-07-12T12:13:31.507Z,1.70
2023-07-12T12:16:12.160Z,1.30
2023-07-12T12:18:59.178Z,1.50
2023-07-12T12:21:30.709Z,1.10
2023-07-12T12:24:08.274Z,1.30
2023-07-12T12:26:42.285Z,1.00
2023-07-12T12:29:18.702Z,1.58
2023-07-12T12:31:54.709Z,0.98
2023-07-12T12:34:27.950Z,1.30
2023-07-12T12:37:01.679Z,1.20
2023-07-12T12:39:37.686Z,1.15
2023-07-12T12:42:20.991Z,1.20
2023-07-12T12:58:05.197Z,1.67
2023-07-12T13:06:35.283Z,1.35
2023-07-12T13:11:13.287Z,1.50
2023-07-12T13:19:31.726Z,1.60
2023-07-12T13:22:03.171Z,1.58
2023-07-12T13:27:01.478Z,1.60
2023-07-12T13:29:30.972Z,1.60
2023-07-12T13:32:00.416Z,1.33
2023-07-12T13:36:06.888Z,1.27
2023-07-12T13:37:28.969Z,1.17
2023-07-12T13:40:20.244Z,1.52
2023-07-12T13:42:58.385Z,1.15
2023-07-12T13:45:30.644Z,1.02
2023-07-12T13:48:00.190Z,1.35
2023-07-12T13:50:29.620Z,1.30
2023-07-12T13:53:01.482Z,1.40
2023-07-12T13:55:31.140Z,1.58
2023-07-12T13:58:00.334Z,1.20
2023-07-12T14:03:22.114Z,1.48
2023-07-12T14:05:57.897Z,1.30
2023-07-12T14:11:06.642Z,1.35
2023-07-12T14:13:36.579Z,1.45
2023-07-12T14:16:06.211Z,1.60
2023-07-12T14:18:35.933Z,1.48
2023-07-12T14:21:15.354Z,1.40
2023-07-12T14:23:52.135Z,1.40
2023-07-12T14:26:24.488Z,1.48
2023-07-12T14:28:58.235Z,1.45
2023-07-12T14:31:29.779Z,1.30
2023-07-12T14:33:59.609Z,1.63
2023-07-12T14:36:29.300Z,1.85
2023-07-12T14:39:06.017Z,1.33
2023-07-12T14:41:36.293Z,1.60
2023-07-12T14:44:15.309Z,1.65
2023-07-12T14:46:45.077Z,1.40
2023-07-12T14:49:14.650Z,1.42
2023-07-12T14:51:52.492Z,1.70
2023-07-12T14:54:39.316Z,1.63
2023-07-12T14:57:45.174Z,1.65
2023-07-12T15:00:16.743Z,1.42
2023-07-12T15:03:01.642Z,1.67
2023-07-12T15:05:31.283Z,1.60
2023-07-12T15:08:00.546Z,2.17
2023-07-12T15:10:33.343Z,1.52
2023-07-12T15:13:03.692Z,2.00
2023-07-12T15:15:34.971Z,1.95
2023-07-12T15:18:18.163Z,1.90
2023-07-12T15:21:10.520Z,1.70
2023-07-12T15:23:40.503Z,1.80
2023-07-12T15:26:12.964Z,1.80
2023-07-12T15:28:42.674Z,1.90
2023-07-12T15:31:25.396Z,1.80
2023-07-12T15:33:54.951Z,1.52
2023-07-12T15:36:25.783Z,2.03
2023-07-12T15:38:55.140Z,1.60
2023-07-12T15:41:28.913Z,1.90
2023-07-12T15:43:59.632Z,1.48
2023-07-12T15:46:32.750Z,1.38
2023-07-12T15:49:07.297Z,1.52
2023-07-12T15:54:23.657Z,1.25
2023-07-12T15:56:55.943Z,1.42
2023-07-12T15:59:29.199Z,1.40
2023-07-12T16:01:59.470Z,1.48
2023-07-12T16:04:28.796Z,1.98
2023-07-12T16:07:03.500Z,1.48
2023-07-12T16:09:33.655Z,1.63
2023-07-12T16:12:05.646Z,1.58
2023-07-12T16:14:35.449Z,2.60
2023-07-12T16:17:05.162Z,1.95
2023-07-12T16:19:34.565Z,2.17
2023-07-12T16:22:03.878Z,1.70
2023-07-12T16:24:39.916Z,1.77
2023-07-12T16:27:19.593Z,2.00
2023-07-12T16:29:49.192Z,1.88
2023-07-12T16:32:19.916Z,1.95
2023-07-12T16:34:49.981Z,1.90
2023-07-12T16:37:21.029Z,2.13
2023-07-12T16:39:52.709Z,2.22
2023-07-12T16:45:02.719Z,1.60
2023-07-12T16:47:34.254Z,1.55
2023-07-12T16:50:09.028Z,1.70
2023-07-12T16:52:38.535Z,1.55
2023-07-12T16:55:23.778Z,1.50
2023-07-12T16:57:55.286Z,1.30
2023-07-12T17:00:31.453Z,1.58
2023-07-12T17:03:00.902Z,1.35
2023-07-12T17:05:30.330Z,1.10
2023-07-12T17:07:59.589Z,1.40
2023-07-12T17:10:28.956Z,1.40
2023-07-12T17:13:00.749Z,1.55
2023-07-12T17:15:30.217Z,1.30
2023-07-12T17:18:00.732Z,1.30
2023-07-12T17:20:31.534Z,1.25
2023-07-12T17:23:02.716Z,1.30
2023-07-12T17:25:32.154Z,1.30
2023-07-12T17:28:03.537Z,1.65
2023-07-12T17:30:33.192Z,1.80
2023-07-12T17:33:05.670Z,2.08
2023-07-12T17:35:35.075Z,1.58
2023-07-12T17:38:09.365Z,1.50
2023-07-12T17:40:38.951Z,1.90
2023-07-12T17:43:15.548Z,1.70
2023-07-12T17:45:45.943Z,1.60
2023-07-12T17:48:21.195Z,1.50
2023-07-12T17:50:59.734Z,1.40
2023-07-12T17:53:29.496Z,1.70
2023-07-12T17:56:01.045Z,1.45
2023-07-12T17:58:32.483Z,1.40
2023-07-12T18:01:04.624Z,1.48
2023-07-12T18:03:34.357Z,1.30
2023-07-12T18:06:03.801Z,1.52
2023-07-12T18:08:33.277Z,1.58
2023-07-12T18:11:22.523Z,1.90
2023-07-12T18:13:54.070Z,1.70
2023-07-12T18:16:23.735Z,1.17
2023-07-12T18:18:54.019Z,1.52
2023-07-12T18:21:26.850Z,1.48
2023-07-12T18:23:57.204Z,1.40
2023-07-12T18:26:28.001Z,1.60
2023-07-12T18:28:59.274Z,1.30
2023-07-12T18:31:31.563Z,1.45
2023-07-12T18:34:02.819Z,1.42
2023-07-12T18:36:33.051Z,1.60
2023-07-12T18:39:07.866Z,1.30
2023-07-12T18:44:16.453Z,1.38
2023-07-12T18:46:46.949Z,1.33
2023-07-12T18:49:16.533Z,1.55
2023-07-12T18:51:45.758Z,1.45
2023-07-12T18:54:22.154Z,1.50
2023-07-12T18:56:51.698Z,1.90
2023-07-12T18:59:23.230Z,3.47
2023-07-12T19:01:53.133Z,3.35
2023-07-12T19:04:28.831Z,3.20
2023-07-12T19:06:58.201Z,3.35
2023-07-12T19:09:27.539Z,3.65
2023-07-12T19:11:59.914Z,4.20
2023-07-12T19:14:32.200Z,4.15
2023-07-12T19:17:03.640Z,3.78
2023-07-12T19:19:33.168Z,3.40
2023-07-12T19:22:09.160Z,3.05
2023-07-12T19:24:43.916Z,2.55
2023-07-12T19:27:24.304Z,2.63
2023-07-12T19:30:01.878Z,2.40
2023-07-12T19:32:41.576Z,1.95
2023-07-12T19:35:21.050Z,2.15
2023-07-12T19:37:50.847Z,2.00
2023-07-12T19:40:20.947Z,2.10
2023-07-12T19:42:52.145Z,2.20
2023-07-12T19:45:28.581Z,1.95
2023-07-12T19:47:59.348Z,2.17
2023-07-12T19:50:34.404Z,2.13
2023-07-12T19:53:27.635Z,2.40
2023-07-12T19:55:57.521Z,2.10
2023-07-12T19:58:32.406Z,3.42
2023-07-12T20:01:04.703Z,2.90
2023-07-12T20:03:39.544Z,2.00
2023-07-12T20:06:10.818Z,1.90
2023-07-12T20:08:50.472Z,1.58
2023-07-12T20:11:26.770Z,1.60
2023-07-12T20:13:58.016Z,1.80
2023-07-12T20:16:30.937Z,1.65
2023-07-12T20:21:40.246Z,1.65
2023-07-12T20:24:13.640Z,1.70
2023-07-12T20:26:43.417Z,1.42
2023-07-12T20:29:14.469Z,1.75
2023-07-12T20:31:45.980Z,2.03
2023-07-12T20:36:53.104Z,1.83
2023-07-12T20:39:24.473Z,1.65
2023-07-12T20:44:33.796Z,1.23
2023-07-12T20:47:05.718Z,1.60
2023-07-12T20:49:39.859Z,1.65
2023-07-12T20:52:15.730Z,1.65
2023-07-12T20:54:46.536Z,2.47
2023-07-12T20:57:16.401Z,2.00
2023-07-12T20:59:45.773Z,1.60
2023-07-12T21:02:24.371Z,1.70
2023-07-12T21:07:28.313Z,1.83
2023-07-12T21:09:57.879Z,1.67
2023-07-12T21:12:27.205Z,1.75
2023-07-12T21:14:57.569Z,1.77
2023-07-12T21:17:34.061Z,1.58
2023-07-12T21:20:05.485Z,2.13
2023-07-12T21:22:35.746Z,1.80
2023-07-12T21:25:05.278Z,2.13
2023-07-12T21:27:34.802Z,1.90
2023-07-12T21:30:04.620Z,2.30
2023-07-12T21:32:39.139Z,2.20
2023-07-12T21:35:09.881Z,2.10
2023-07-12T21:37:44.264Z,1.80
2023-07-12T21:40:18.730Z,2.30
2023-07-12T21:42:48.732Z,1.90
2023-07-12T21:45:18.254Z,2.60
2023-07-12T21:47:49.607Z,2.03
2023-07-12T21:50:24.004Z,1.90
2023-07-12T21:52:53.380Z,1.80
2023-07-12T21:55:22.593Z,2.20
2023-07-12T21:57:51.920Z,1.88
2023-07-12T22:00:22.216Z,1.92
2023-07-12T22:02:53.939Z,1.95
2023-07-12T22:07:57.395Z,1.85
2023-07-12T22:10:29.032Z,1.95
2023-07-12T22:13:03.712Z,1.75
2023-07-12T22:15:34.158Z,2.10
2023-07-12T22:18:06.599Z,2.08
2023-07-12T22:20:46.429Z,2.20
2023-07-12T22:23:15.761Z,2.05
2023-07-12T22:25:45.066Z,2.65
2023-07-12T22:28:14.439Z,2.40
2023-07-12T22:30:44.139Z,2.08
2023-07-12T22:33:15.694Z,1.83
2023-07-12T22:35:45.565Z,2.20
2023-07-12T22:38:15.811Z,2.00
2023-07-12T22:40:45.107Z,1.73
2023-07-12T22:43:14.413Z,2.20
2023-07-12T22:45:48.849Z,1.90
2023-07-12T22:48:20.217Z,1.75
2023-07-12T22:53:26.289Z,2.00
2023-07-12T22:55:59.373Z,1.88
2023-07-12T22:58:34.691Z,1.80
2023-07-12T23:01:09.167Z,1.95
2023-07-12T23:03:40.741Z,1.83
2023-07-12T23:08:57.511Z,1.90
2023-07-12T23:11:26.955Z,1.85
2023-07-12T23:13:56.087Z,1.90
2023-07-12T23:16:27.993Z,1.90
2023-07-12T23:19:04.723Z,2.00
2023-07-12T23:21:40.310Z,2.20
2023-07-12T23:24:09.927Z,2.20
2023-07-12T23:26:49.235Z,2.20
2023-07-12T23:29:18.618Z,1.90
2023-07-12T23:31:49.851Z,2.10
2023-07-12T23:34:26.110Z,1.88
2023-07-12T23:36:55.764Z,2.00
2023-07-12T23:39:25.069Z,1.70
2023-07-12T23:41:55.373Z,1.75
2023-07-12T23:44:34.773Z,2.60
2023-07-12T23:47:06.366Z,1.80
2023-07-12T23:52:08.422Z,1.73
2023-07-12T23:54:37.775Z,1.58
2023-07-12T23:57:08.138Z,1.80
2023-07-12T23:59:44.214Z,1.80
